This is the latest recevied weather packets stored in our database for station/object K8WEH. If no packets are shown the sender has not sent any weather packets the latest 1 day(s).
| Time | Temp. | Humidity | Pressure | Rain* | Wind** | Luminosity | Snow |
|---|---|---|---|---|---|---|---|
| 1836274702 | 16.67° C | 73% | 1019.5 hPa | 0 mm | 0 m/s | - | - |
| 1836274553 | 16.67° C | 73% | 1019.6 hPa | 0 mm | 0 m/s | - | - |
| 1836274404 | 16.67° C | 73% | 1019.5 hPa | 0 mm | 0 m/s | - | - |
| 1836274253 | 16.67° C | 73% | 1019.5 hPa | 0 mm | 0 m/s | - | - |
| 1836274102 | 16.67° C | 72% | 1019.5 hPa | 0 mm | 0 m/s | - | - |
| 1778057410 | 13.89° C | 40% | 1007.5 hPa | 2.79 mm | 0 m/s | - | - |
| 1778057110 | 13.89° C | 40% | 1007.6 hPa | 2.79 mm | 0 m/s | - | - |
| 1778056810 | 13.89° C | 40% | 1007.5 hPa | 2.79 mm | 0 m/s | - | - |
| 1778056511 | 13.89° C | 40% | 1007.5 hPa | 2.79 mm | 0 m/s | - | - |
| 1778056210 | 13.89° C | 40% | 1007.3 hPa | 2.54 mm | 0 m/s | - | - |
| 1778055914 | 13.89° C | 40% | 1007.4 hPa | 2.54 mm | 0 m/s | - | - |
| 1778055608 | 13.89° C | 40% | 1007.4 hPa | 3.05 mm | 0 m/s | - | - |
| 1778055314 | 13.89° C | 40% | 1007.4 hPa | 2.79 mm | 0 m/s | - | - |
| 1778055008 | 13.89° C | 40% | 1007.3 hPa | 3.05 mm | 0 m/s | - | - |
| 1778054708 | 13.89° C | 40% | 1007.3 hPa | 2.79 mm | 0 m/s | - | - |
| 1778054408 | 13.89° C | 40% | 1007.3 hPa | 3.05 mm | 0 m/s | - | - |
| 1778054108 | 13.89° C | 40% | 1007.5 hPa | 2.79 mm | 0 m/s | - | - |
| 1778053807 | 13.89° C | 40% | 1007.5 hPa | 2.54 mm | 0 m/s | - | - |
| 1778053507 | 13.89° C | 40% | 1007.3 hPa | 3.05 mm | 0 m/s | - | - |
| 1778053208 | 13.89° C | 40% | 1007.3 hPa | 3.3 mm | 0 m/s | - | - |
| 1778052907 | 13.89° C | 40% | 1007.1 hPa | 3.56 mm | 0 m/s | - | - |
| 1778052607 | 13.89° C | 40% | 1007.1 hPa | 3.81 mm | 0 m/s | - | - |
| 1778052307 | 13.89° C | 41% | 1007.1 hPa | 3.56 mm | 0 m/s | - | - |
| 1778052006 | 13.89° C | 41% | 1007 hPa | 3.56 mm | 0 m/s | - | - |
| 1778051715 | 13.89° C | 41% | 1007 hPa | 3.3 mm | 0 m/s | - | - |
* Rain latest hour (hover to see other rain measurements)
** Current wind speed in m/s (hover to see current wind gust speed)